UBC Old Black Spruce (OBS) Site

Current climate data:

Measured at 06:00:00, 2018-07-22 (Local time)

 Air temperature        =  13.62 C 
 Relative humidity      =   0.00 % 
 Wind speed             =   2.04 m/s
 Wind direction         = 300.91  
 Barometric pressure    =   0.00 kPa 
 Precipitation (last 30 min) =   0.00 mm 
 Precipitation (24h totals ending at  4:00 AM today)  =   1.95 mm 
 Precipitation (24h totals ending at  6:00 AM today)  =   2.13 mm 
 Cumulative Precipitation (2018) =  302 mm 

Current Picture (Time stamp:UTC)  (Full size image)

Fire index data:

Year  Month  Day  Hour  Tair(C) RH(%) Wind(m/s) W_Dir(deg)  Rain(mm)   ffmc     dmc      dc     bui     isi     fwi     dsr     Rating
2018      6    8   13   21.06   41.50    4.95    155.29      0.01     85.00    9.78   24.95    9.88    5.18    5.57    0.57       2  
2018      6    9   13   18.54   62.29    4.03    164.33      0.07     85.05   11.73   31.69   12.19    4.41    5.34    0.53       2  
2018      6   10   13   25.74   46.95    8.51    154.67      5.39     80.04   10.44   32.96   11.65    5.35    6.28    0.70       2  
2018      6   11   13   14.64   54.00    6.79    225.99     12.21     58.98    6.64   20.50    7.34    1.31    0.67    0.01       2  
2018      6   12   13   10.50   22.57    5.04    259.52      1.46     76.07    9.01   25.79    9.62    2.04    1.70    0.07       2  
2018      6   13   13   16.41   34.00    3.10    282.35      2.70     74.90    9.45   32.15   10.89    1.34    0.84    0.02       2  
2018      6   14   13   21.43   28.91    3.02     16.08      0.00     88.45   13.66   39.41   14.64    5.94    7.79    1.03       2  
2018      6   15   13   16.98   38.54    5.43    333.45      3.01     77.56   12.83   43.22   14.73    2.44    3.14    0.21       2  
2018      6   16   13   18.88   36.16    4.92      9.90      0.00     87.37   16.19   50.02   17.90    7.18   10.20    1.66       2  
2018      6   17   13   20.99   33.00    1.98    359.03      0.00     90.00   20.09   57.20   21.39    6.14    9.82    1.55       3  
2018      6   18   13   25.05   25.60    3.67    294.77      0.00     92.57   25.21   65.12   25.62   12.02   18.23    4.64       3  
2018      6   19   13   27.72   23.18    1.80    261.91      0.00     93.74   31.04   73.51   31.01   10.09   17.59    4.35       3  
2018      6   20   13   29.50   23.52    4.64    302.01      0.00     94.11   37.20   82.22   37.13   17.77   28.69   10.34       3  
2018      6   21   13   24.73   35.52    2.82    320.94      0.00     92.75   41.59   90.08   41.50   10.57   21.07    5.99       3  
2018      6   22   13   20.21   50.67    2.03    139.04      0.10     89.85   44.35   97.12   44.27    6.07   14.42    3.06       3  
2018      6   23   13   15.09   71.78    0.00    285.00      0.41     86.61   45.56  103.24   45.49    2.64    7.33    0.93       3  
2018      6   24   13   21.15   52.82    3.00    179.32      0.02     87.00   48.32  110.45   48.26    4.80   12.60    2.41       3  
2018      6   25   13   26.12   48.86    4.30    224.88      4.38     77.72   37.07  112.46   40.65    2.01    5.25    0.51       2  
2018      6   26   13   25.13   44.18    0.00      0.00      0.00     85.09   40.93  120.38   44.25    2.13    5.91    0.63       3  
2018      6   27   13   18.85   52.87    6.42    268.55      0.00     86.40   43.40  127.18   46.84    8.21   18.65    4.83       4* 
2018      6   28   13   18.73   41.73    7.39    284.29      0.00     88.29   46.45  133.96   49.76   12.81   26.39    8.92       4* 
2018      6   29   13   19.06   42.25    2.20    282.18      0.00     88.54   49.51  140.79   52.69    5.19   14.06    2.93       3  
2018      6   30   13   21.91   33.79    2.78    274.34      0.00     90.31   53.52  148.14   56.24    7.42   19.06    5.02       4* 
2018      7    1   13   14.15   83.89    2.58    282.00      8.26     41.74   29.99  138.78   38.94    0.08    0.11    0.00       2  
2018      7    2   13   13.69   83.61    0.59    323.23     11.76     21.74   14.23  121.96   22.03    0.00    0.00    0.00       2  
2018      7    3   13   13.87   84.64    4.28    124.43      7.32     28.57    8.10  115.54   13.78    0.01    0.00    0.00       1  
2018      7    4   13   11.90   83.34    3.19     24.80      0.87     44.38    8.60  121.39   14.62    0.13    0.10    0.00       1  
2018      7    5   13   22.10   35.72    3.57    286.84      0.50     80.09   12.11  129.07   19.61    2.19    3.42    0.24       2  
2018      7    6   13   28.18   41.41    5.44    198.69      0.00     89.29   16.14  137.84   24.97   10.40   16.15    3.74       3  
2018      7   19   13   22.03   40.73    1.24    349.71      6.58     67.26   12.19  134.03   19.86    0.72    0.65    0.01       2  

(c) 2018 Biomet Group, University of British Columbia, Canada